Time;durP1;ratioP1;P1;durP2;ratioP2;P2;SDS_P1;SDS_P2;PMS_P1;PMS_P2;Temp;Humidity;BMP_temperature;BMP_pressure;BME280_temperature;BME280_humidity;BME280_pressure;Samples;Min_cycle;Max_cycle;Signal;HPM_P1;HPM_P2
2021/11/15 00:00:44;;;;;;;8.30;5.90;;;;;;;;;;4617276;27;32094;-57
2021/11/15 00:02:55;;;;;;;8.30;5.60;;;;;;;;;;4600369;27;20115;-56
2021/11/15 00:05:06;;;;;;;8.20;5.83;;;;;;;;;;4619160;27;20493;-57
2021/11/15 00:07:17;;;;;;;7.97;5.65;;;;;;;;;;4608898;27;20034;-57
2021/11/15 00:09:28;;;;;;;7.97;5.67;;;;;;;;;;4617496;27;20027;-57
2021/11/15 00:11:39;;;;;;;8.35;5.80;;;;;;;;;;4616477;27;20103;-57
2021/11/15 00:13:49;;;;;;;7.73;5.70;;;;;;;;;;4617059;27;20125;-57
2021/11/15 00:15:59;;;;;;;7.87;5.70;;;;;;;;;;4616946;27;20581;-57
2021/11/15 00:18:10;;;;;;;7.73;5.53;;;;;;;;;;4618743;27;20034;-57
2021/11/15 00:20:20;;;;;;;8.07;6.00;;;;;;;;;;4616570;27;20024;-56
2021/11/15 00:22:31;;;;;;;8.20;5.90;;;;;;;;;;4617603;27;20023;-57
2021/11/15 00:24:41;;;;;;;8.37;6.20;;;;;;;;;;4617426;27;20023;-58
2021/11/15 00:26:52;;;;;;;6.93;5.27;;;;;;;;;;4617197;27;20027;-57
2021/11/15 00:29:03;;;;;;;7.93;5.90;;;;;;;;;;4591462;27;20024;-56
2021/11/15 00:31:14;;;;;;;8.38;5.85;;;;;;;;;;4591817;27;20035;-56
2021/11/15 00:33:24;;;;;;;9.17;6.30;;;;;;;;;;4617285;27;20046;-57
2021/11/15 00:35:35;;;;;;;8.27;6.00;;;;;;;;;;4608726;27;20035;-57
2021/11/15 00:37:45;;;;;;;8.50;6.07;;;;;;;;;;4598721;27;20102;-56
2021/11/15 00:39:56;;;;;;;8.33;6.00;;;;;;;;;;4617115;27;20038;-57
2021/11/15 00:42:06;;;;;;;8.97;6.37;;;;;;;;;;4617927;27;20046;-56
2021/11/15 00:44:17;;;;;;;8.60;6.13;;;;;;;;;;4618530;27;20023;-56
2021/11/15 00:46:27;;;;;;;8.03;6.00;;;;;;;;;;4618749;27;20030;-56
2021/11/15 00:48:38;;;;;;;8.03;6.17;;;;;;;;;;4619139;27;20023;-57
2021/11/15 00:50:48;;;;;;;8.23;5.90;;;;;;;;;;4608987;27;20027;-57
2021/11/15 00:52:59;;;;;;;9.50;6.53;;;;;;;;;;4602955;27;20072;-57
2021/11/15 00:55:09;;;;;;;8.53;6.57;;;;;;;;;;4585337;27;20154;-57
2021/11/15 00:57:20;;;;;;;9.23;6.30;;;;;;;;;;4620499;27;20490;-57
2021/11/15 00:59:32;;;;;;;8.87;6.63;;;;;;;;;;4598031;27;20045;-57
2021/11/15 01:01:42;;;;;;;8.30;6.22;;;;;;;;;;4618995;27;20088;-56
2021/11/15 01:03:53;;;;;;;9.33;7.00;;;;;;;;;;4600954;27;20042;-57
2021/11/15 01:06:03;;;;;;;8.97;6.43;;;;;;;;;;4597745;27;20129;-57
2021/11/15 01:08:16;;;;;;;10.10;6.60;;;;;;;;;;4615455;27;38244;-56
2021/11/15 01:10:26;;;;;;;8.55;6.72;;;;;;;;;;4602184;27;20032;-57
2021/11/15 01:12:37;;;;;;;8.47;6.40;;;;;;;;;;4601718;27;20027;-57
2021/11/15 01:14:48;;;;;;;9.70;6.97;;;;;;;;;;4598724;27;20479;-57
2021/11/15 01:16:58;;;;;;;7.80;5.77;;;;;;;;;;4598168;27;20047;-57
2021/11/15 01:19:09;;;;;;;9.10;6.63;;;;;;;;;;4618583;27;20047;-57
2021/11/15 01:21:25;;;;;;;9.27;7.05;;;;;;;;;;4618223;27;20023;-57
2021/11/15 01:23:36;;;;;;;9.07;6.55;;;;;;;;;;4617359;27;20027;-57
2021/11/15 01:25:47;;;;;;;8.07;6.03;;;;;;;;;;4597990;27;20040;-57
2021/11/15 01:27:57;;;;;;;8.40;6.30;;;;;;;;;;4617601;27;20027;-57
2021/11/15 01:30:10;;;;;;;8.47;6.30;;;;;;;;;;4616294;27;20023;-57
2021/11/15 01:32:21;;;;;;;8.68;6.40;;;;;;;;;;4616875;27;20023;-57
2021/11/15 01:34:31;;;;;;;8.37;6.10;;;;;;;;;;4609282;27;20039;-57
2021/11/15 01:36:41;;;;;;;8.50;6.23;;;;;;;;;;4619050;27;21612;-56
2021/11/15 01:38:52;;;;;;;8.53;6.70;;;;;;;;;;4618014;27;20335;-57
2021/11/15 01:41:04;;;;;;;7.87;6.03;;;;;;;;;;4615747;27;34089;-57
2021/11/15 01:43:14;;;;;;;8.13;6.15;;;;;;;;;;4615979;27;20061;-56
2021/11/15 01:45:27;;;;;;;8.80;6.67;;;;;;;;;;4617294;27;20144;-57
2021/11/15 01:47:38;;;;;;;8.32;6.13;;;;;;;;;;4617720;27;20031;-57
2021/11/15 01:49:49;;;;;;;7.53;5.53;;;;;;;;;;4598392;27;20035;-57
2021/11/15 01:52:00;;;;;;;8.75;6.78;;;;;;;;;;4617493;27;20023;-57
2021/11/15 01:54:11;;;;;;;7.73;5.97;;;;;;;;;;4617301;27;32515;-59
2021/11/15 01:56:22;;;;;;;8.17;6.03;;;;;;;;;;4600083;27;20088;-57
2021/11/15 01:58:32;;;;;;;9.17;6.53;;;;;;;;;;4588811;27;20024;-57
2021/11/15 02:00:49;;;;;;;8.43;6.23;;;;;;;;;;4621120;27;20102;-57
2021/11/15 02:03:01;;;;;;;8.20;6.22;;;;;;;;;;4619987;27;20232;-57
2021/11/15 02:05:11;;;;;;;8.23;6.07;;;;;;;;;;4589718;27;20031;-57
2021/11/15 02:07:21;;;;;;;9.37;6.93;;;;;;;;;;4621017;27;20057;-57
2021/11/15 02:09:32;;;;;;;8.20;6.30;;;;;;;;;;4619557;27;35504;-56
2021/11/15 02:11:42;;;;;;;8.20;6.13;;;;;;;;;;4618611;27;20023;-57
2021/11/15 02:13:53;;;;;;;8.00;5.57;;;;;;;;;;4621675;27;20050;-57
2021/11/15 02:16:04;;;;;;;7.53;5.70;;;;;;;;;;4620756;27;22701;-57
2021/11/15 02:18:15;;;;;;;8.00;6.05;;;;;;;;;;4605872;27;20034;-57
2021/11/15 02:20:27;;;;;;;;;;;;;;;;;;4602166;27;20025;-57
2021/11/15 02:22:37;;;;;;;7.53;5.95;;;;;;;;;;4601754;27;19914;-56
2021/11/15 02:24:47;;;;;;;8.03;6.17;;;;;;;;;;4620588;27;20524;-57
2021/11/15 02:26:58;;;;;;;7.37;5.60;;;;;;;;;;4621305;27;20072;-57
2021/11/15 02:29:08;;;;;;;8.60;6.47;;;;;;;;;;4599737;27;30281;-56
2021/11/15 02:31:23;;;;;;;8.20;6.00;;;;;;;;;;4620383;27;20030;-57
2021/11/15 02:33:34;;;;;;;8.93;6.68;;;;;;;;;;4618922;27;20118;-57
2021/11/15 02:35:44;;;;;;;8.00;6.37;;;;;;;;;;4621901;27;20041;-56
2021/11/15 02:37:55;;;;;;;8.23;6.53;;;;;;;;;;4600463;27;20277;-57
2021/11/15 02:40:08;;;;;;;9.50;6.90;;;;;;;;;;4602280;27;20657;-57
2021/11/15 02:42:18;;;;;;;8.10;6.20;;;;;;;;;;4603699;27;20805;-57
2021/11/15 02:44:29;;;;;;;8.47;6.50;;;;;;;;;;4611961;27;20023;-56
2021/11/15 02:46:40;;;;;;;8.70;6.83;;;;;;;;;;4622879;27;20020;-56
2021/11/15 02:48:50;;;;;;;7.50;5.83;;;;;;;;;;4618722;27;20019;-56
2021/11/15 02:51:01;;;;;;;8.50;6.37;;;;;;;;;;4622029;27;20102;-56
2021/11/15 02:53:11;;;;;;;8.27;6.23;;;;;;;;;;4601888;27;20019;-57
2021/11/15 02:55:22;;;;;;;7.77;6.03;;;;;;;;;;4618784;27;33430;-58
2021/11/15 02:57:33;;;;;;;8.15;5.43;;;;;;;;;;4619483;27;20030;-57
2021/11/15 02:59:44;;;;;;;7.50;5.60;;;;;;;;;;4618556;27;33911;-57
2021/11/15 03:01:54;;;;;;;8.77;6.43;;;;;;;;;;4621470;27;20085;-57
2021/11/15 03:04:04;;;;;;;7.77;5.57;;;;;;;;;;4618293;27;20208;-57
2021/11/15 03:06:15;;;;;;;7.20;5.50;;;;;;;;;;4618898;27;20023;-57
2021/11/15 03:08:25;;;;;;;7.47;5.50;;;;;;;;;;4599590;27;20043;-57
2021/11/15 03:10:37;;;;;;;6.93;5.00;;;;;;;;;;4602975;27;20078;-57
2021/11/15 03:12:48;;;;;;;;;;;;;;;;;;4619820;27;20031;-57
2021/11/15 03:14:58;;;;;;;8.13;5.85;;;;;;;;;;4620222;27;20387;-57
2021/11/15 03:17:09;;;;;;;7.90;5.83;;;;;;;;;;4618776;27;20015;-57
2021/11/15 03:19:19;;;;;;;7.67;5.80;;;;;;;;;;4586204;27;20031;-57
2021/11/15 03:21:30;;;;;;;9.00;5.87;;;;;;;;;;4619897;27;20033;-57
2021/11/15 03:23:42;;;;;;;7.47;5.53;;;;;;;;;;4602463;27;20178;-57
2021/11/15 03:25:54;;;;;;;7.65;5.63;;;;;;;;;;4601543;27;20042;-57
2021/11/15 03:28:07;;;;;;;7.82;5.55;;;;;;;;;;4620199;27;20031;-57
2021/11/15 03:30:17;;;;;;;8.65;5.70;;;;;;;;;;4619032;27;20031;-56
2021/11/15 03:32:28;;;;;;;8.20;6.23;;;;;;;;;;4600556;27;20062;-57
2021/11/15 03:34:38;;;;;;;8.90;6.20;;;;;;;;;;4599527;27;20322;-57
2021/11/15 03:36:49;;;;;;;8.57;6.47;;;;;;;;;;4600254;27;20674;-57
2021/11/15 03:38:59;;;;;;;8.20;6.17;;;;;;;;;;4621037;27;20125;-57
2021/11/15 03:41:10;;;;;;;8.77;6.63;;;;;;;;;;4619826;27;20031;-57
2021/11/15 03:43:20;;;;;;;9.00;6.30;;;;;;;;;;4619311;27;20217;-57
2021/11/15 03:45:32;;;;;;;8.10;5.80;;;;;;;;;;4599387;27;20023;-57
2021/11/15 03:47:43;;;;;;;8.43;6.18;;;;;;;;;;4610431;27;20685;-57
2021/11/15 03:49:53;;;;;;;8.43;6.28;;;;;;;;;;4618435;27;20035;-56
2021/11/15 03:52:04;;;;;;;8.37;5.93;;;;;;;;;;4619331;27;20038;-57
2021/11/15 03:54:14;;;;;;;8.97;6.57;;;;;;;;;;4618875;27;20803;-56
2021/11/15 03:56:27;;;;;;;9.80;6.37;;;;;;;;;;4600838;27;20433;-57
2021/11/15 03:58:39;;;;;;;9.02;6.32;;;;;;;;;;4618361;27;20170;-57
2021/11/15 04:00:50;;;;;;;8.75;6.30;;;;;;;;;;4619571;27;20617;-56
2021/11/15 04:03:04;;;;;;;8.95;5.82;;;;;;;;;;4620500;27;20039;-57
2021/11/15 04:05:21;;;;;;;9.35;6.22;;;;;;;;;;4619891;27;20769;-57
2021/11/15 04:07:40;;;;;;;8.02;5.65;;;;;;;;;;4617681;27;20650;-56
2021/11/15 04:09:50;;;;;;;7.40;5.03;;;;;;;;;;4619470;27;20062;-57
2021/11/15 04:12:00;;;;;;;7.30;4.90;;;;;;;;;;4617778;27;20626;-57
2021/11/15 04:14:13;;;;;;;7.73;5.13;;;;;;;;;;4603284;27;20170;-57
2021/11/15 04:16:23;;;;;;;6.72;4.75;;;;;;;;;;4600039;27;20039;-57
2021/11/15 04:18:37;;;;;;;7.23;4.60;;;;;;;;;;4610168;27;20031;-57
2021/11/15 04:20:49;;;;;;;6.50;4.43;;;;;;;;;;4597733;27;20578;-56
2021/11/15 04:22:59;;;;;;;6.97;4.60;;;;;;;;;;4600905;27;20130;-56
2021/11/15 04:25:11;;;;;;;6.47;4.03;;;;;;;;;;4619640;27;20102;-57
2021/11/15 04:27:21;;;;;;;6.20;3.60;;;;;;;;;;4618167;27;20023;-58
2021/11/15 04:29:32;;;;;;;5.93;3.90;;;;;;;;;;4599835;27;31661;-57
2021/11/15 04:31:43;;;;;;;6.00;3.75;;;;;;;;;;4586500;27;20031;-58
2021/11/15 04:33:54;;;;;;;6.13;3.90;;;;;;;;;;4616075;27;32101;-57
2021/11/15 04:36:04;;;;;;;5.38;3.50;;;;;;;;;;4603800;27;20106;-58
2021/11/15 04:38:15;;;;;;;6.22;3.70;;;;;;;;;;4619100;27;20023;-60
2021/11/15 04:40:26;;;;;;;6.70;3.77;;;;;;;;;;4602217;27;20030;-57
2021/11/15 04:42:37;;;;;;;4.80;3.30;;;;;;;;;;4599165;27;20032;-57
2021/11/15 04:44:47;;;;;;;4.90;3.38;;;;;;;;;;4603858;27;20027;-57
2021/11/15 04:46:57;;;;;;;4.90;3.27;;;;;;;;;;4617897;27;20110;-57
2021/11/15 04:49:08;;;;;;;5.43;3.47;;;;;;;;;;4617919;27;20058;-57
2021/11/15 04:51:18;;;;;;;4.50;2.90;;;;;;;;;;4610174;27;20803;-57
2021/11/15 04:53:29;;;;;;;5.27;3.47;;;;;;;;;;4619655;27;20032;-57
2021/11/15 04:55:39;;;;;;;5.97;3.70;;;;;;;;;;4618259;27;20912;-57
2021/11/15 04:57:51;;;;;;;4.60;3.00;;;;;;;;;;4619485;27;20035;-57
2021/11/15 05:00:06;;;;;;;5.65;3.40;;;;;;;;;;4618152;27;20833;-59
2021/11/15 05:02:16;;;;;;;4.60;3.10;;;;;;;;;;4616729;27;20019;-58
2021/11/15 05:04:26;;;;;;;4.50;3.20;;;;;;;;;;4619031;27;20015;-57
2021/11/15 05:06:37;;;;;;;5.40;3.40;;;;;;;;;;4616915;27;20034;-58
2021/11/15 05:08:47;;;;;;;5.63;3.70;;;;;;;;;;4598503;27;20027;-57
2021/11/15 05:10:58;;;;;;;4.87;3.10;;;;;;;;;;4618922;27;20027;-57
2021/11/15 05:13:08;;;;;;;5.07;3.13;;;;;;;;;;4618663;27;20023;-57
2021/11/15 05:15:19;;;;;;;4.77;3.20;;;;;;;;;;4617856;27;20487;-57
2021/11/15 05:17:29;;;;;;;4.43;3.10;;;;;;;;;;4602735;27;20519;-57
2021/11/15 05:19:40;;;;;;;6.07;3.43;;;;;;;;;;4617673;27;20031;-57
2021/11/15 05:21:50;;;;;;;5.00;3.13;;;;;;;;;;4601465;27;20023;-57
2021/11/15 05:24:01;;;;;;;5.30;3.50;;;;;;;;;;4619168;27;20032;-57
2021/11/15 05:26:12;;;;;;;4.53;3.23;;;;;;;;;;4617180;27;20430;-57
2021/11/15 05:28:22;;;;;;;5.33;3.33;;;;;;;;;;4600464;27;20039;-58
2021/11/15 05:30:33;;;;;;;4.80;3.20;;;;;;;;;;4618400;27;20046;-57
2021/11/15 05:32:44;;;;;;;5.07;3.27;;;;;;;;;;4620136;27;20044;-57
2021/11/15 05:34:57;;;;;;;4.55;2.90;;;;;;;;;;4620362;27;20066;-57
2021/11/15 05:37:07;;;;;;;5.20;3.58;;;;;;;;;;4619529;27;20643;-57
2021/11/15 05:39:18;;;;;;;5.87;3.60;;;;;;;;;;4621113;27;20019;-58
2021/11/15 05:41:28;;;;;;;6.17;3.63;;;;;;;;;;4621065;27;31947;-58
2021/11/15 05:43:39;;;;;;;5.27;3.47;;;;;;;;;;4619761;27;20039;-57
2021/11/15 05:45:49;;;;;;;4.53;3.00;;;;;;;;;;4621671;27;20411;-57
2021/11/15 05:48:00;;;;;;;4.93;3.20;;;;;;;;;;4622024;27;20027;-58
2021/11/15 05:50:10;;;;;;;5.73;3.63;;;;;;;;;;4622086;27;20019;-57
2021/11/15 05:52:23;;;;;;;5.00;3.10;;;;;;;;;;4619883;27;20038;-57
2021/11/15 05:54:33;;;;;;;5.63;3.50;;;;;;;;;;4600876;27;20619;-57
2021/11/15 05:56:44;;;;;;;4.73;3.40;;;;;;;;;;4620864;27;20023;-57
2021/11/15 05:58:54;;;;;;;5.33;3.40;;;;;;;;;;4621034;27;20043;-57
2021/11/15 06:01:05;;;;;;;4.97;3.23;;;;;;;;;;4619719;27;34864;-57
2021/11/15 06:03:16;;;;;;;4.67;3.00;;;;;;;;;;4619293;27;20027;-57
2021/11/15 06:05:26;;;;;;;5.50;3.40;;;;;;;;;;4620598;27;20629;-57
2021/11/15 06:07:37;;;;;;;4.47;3.23;;;;;;;;;;4620137;27;20024;-57
2021/11/15 06:09:48;;;;;;;4.47;2.83;;;;;;;;;;4621127;27;20440;-57
2021/11/15 06:11:58;;;;;;;5.23;3.23;;;;;;;;;;4621416;27;20033;-57
2021/11/15 06:14:08;;;;;;;5.13;3.30;;;;;;;;;;4618993;27;20143;-57
2021/11/15 06:16:19;;;;;;;5.70;3.60;;;;;;;;;;4603080;27;33486;-57
2021/11/15 06:18:29;;;;;;;6.47;4.07;;;;;;;;;;4612621;27;20031;-57
2021/11/15 06:20:41;;;;;;;6.60;4.10;;;;;;;;;;4604891;27;20027;-57
2021/11/15 06:22:51;;;;;;;5.63;3.47;;;;;;;;;;4619032;27;20053;-57
2021/11/15 06:25:03;;;;;;;6.00;3.93;;;;;;;;;;4620379;27;20029;-58
2021/11/15 06:27:17;;;;;;;6.97;4.18;;;;;;;;;;4594625;27;21133;-57
2021/11/15 06:29:28;;;;;;;7.20;4.30;;;;;;;;;;4621222;27;20637;-57
2021/11/15 06:31:39;;;;;;;6.32;4.13;;;;;;;;;;4620004;27;20034;-57
2021/11/15 06:33:49;;;;;;;6.73;4.00;;;;;;;;;;4620986;27;20185;-57
2021/11/15 06:36:00;;;;;;;7.80;4.33;;;;;;;;;;4601707;27;20038;-57
2021/11/15 06:38:10;;;;;;;6.37;4.20;;;;;;;;;;4601178;27;29694;-57
2021/11/15 06:40:20;;;;;;;6.90;4.20;;;;;;;;;;4622123;27;20031;-57
2021/11/15 06:42:31;;;;;;;7.00;4.20;;;;;;;;;;4598883;27;20030;-57
2021/11/15 06:44:41;;;;;;;6.27;4.00;;;;;;;;;;4621752;27;20027;-57
2021/11/15 06:46:52;;;;;;;7.53;4.40;;;;;;;;;;4619703;27;20035;-57
2021/11/15 06:49:03;;;;;;;6.82;3.75;;;;;;;;;;4618772;27;20027;-57
2021/11/15 06:51:13;;;;;;;7.07;4.27;;;;;;;;;;4619617;27;20027;-57
2021/11/15 06:53:24;;;;;;;6.03;4.10;;;;;;;;;;4599784;27;20046;-57
2021/11/15 06:55:34;;;;;;;6.67;4.27;;;;;;;;;;4618967;27;26444;-57
2021/11/15 06:57:45;;;;;;;5.77;3.83;;;;;;;;;;4618634;27;21634;-57
2021/11/15 06:59:57;;;;;;;7.43;4.30;;;;;;;;;;4620070;27;20023;-57
2021/11/15 07:02:08;;;;;;;7.32;4.55;;;;;;;;;;4618203;27;20142;-57
2021/11/15 07:04:18;;;;;;;6.60;4.07;;;;;;;;;;4619605;27;20106;-57
2021/11/15 07:06:29;;;;;;;7.73;4.37;;;;;;;;;;4620045;27;20386;-57
2021/11/15 07:08:39;;;;;;;8.63;4.90;;;;;;;;;;4603381;27;20534;-57
2021/11/15 07:10:50;;;;;;;6.70;4.17;;;;;;;;;;4621248;27;20031;-57
2021/11/15 07:13:00;;;;;;;7.23;4.50;;;;;;;;;;4610811;27;20591;-57
2021/11/15 07:15:11;;;;;;;7.33;4.57;;;;;;;;;;4610896;27;20126;-57
2021/11/15 07:17:22;;;;;;;7.47;4.22;;;;;;;;;;4621811;27;20076;-57
2021/11/15 07:19:32;;;;;;;6.73;3.80;;;;;;;;;;4601660;27;20023;-57
2021/11/15 07:21:42;;;;;;;5.77;3.60;;;;;;;;;;4619552;27;21394;-57
2021/11/15 07:23:53;;;;;;;6.27;3.90;;;;;;;;;;4618435;27;20047;-57
2021/11/15 07:26:03;;;;;;;5.77;3.63;;;;;;;;;;4619824;27;20050;-57
2021/11/15 07:28:14;;;;;;;6.00;3.83;;;;;;;;;;4618837;27;20133;-57
2021/11/15 07:30:25;;;;;;;5.67;3.80;;;;;;;;;;4620743;27;20587;-57
2021/11/15 07:32:36;;;;;;;6.07;3.92;;;;;;;;;;4618563;27;20031;-57
2021/11/15 07:34:47;;;;;;;5.75;4.00;;;;;;;;;;4619168;27;20043;-57
2021/11/15 07:36:57;;;;;;;6.33;4.23;;;;;;;;;;4620863;27;20434;-57
2021/11/15 07:39:08;;;;;;;6.03;3.60;;;;;;;;;;4617681;27;27170;-58
2021/11/15 07:41:19;;;;;;;6.85;4.32;;;;;;;;;;4617336;27;20028;-57
2021/11/15 07:43:29;;;;;;;7.37;4.20;;;;;;;;;;4601272;27;20028;-58
2021/11/15 07:45:40;;;;;;;6.93;4.43;;;;;;;;;;4618052;27;20435;-58
2021/11/15 07:47:51;;;;;;;6.82;4.50;;;;;;;;;;4598793;27;20025;-58
2021/11/15 07:50:04;;;;;;;6.63;4.10;;;;;;;;;;4620060;27;20388;-58
2021/11/15 07:52:17;;;;;;;6.75;4.20;;;;;;;;;;4618097;27;20078;-57
2021/11/15 07:54:29;;;;;;;6.80;4.63;;;;;;;;;;4617629;27;20604;-58
2021/11/15 07:56:39;;;;;;;;;;;;;;;;;;4603671;27;20150;-58
2021/11/15 07:58:49;;;;;;;5.82;3.72;;;;;;;;;;4619036;27;19955;-58
2021/11/15 08:01:01;;;;;;;7.70;4.67;;;;;;;;;;4619456;27;20479;-58
2021/11/15 08:03:11;;;;;;;6.03;4.30;;;;;;;;;;4618285;27;20968;-57
2021/11/15 08:05:22;;;;;;;6.53;4.40;;;;;;;;;;4600551;27;20027;-57
2021/11/15 08:07:33;;;;;;;6.80;4.38;;;;;;;;;;4599309;27;20094;-57
2021/11/15 08:09:44;;;;;;;7.00;4.33;;;;;;;;;;4602823;27;20032;-58
2021/11/15 08:12:00;;;;;;;5.90;4.32;;;;;;;;;;4602442;27;20039;-57
2021/11/15 08:14:11;;;;;;;6.03;4.10;;;;;;;;;;4601397;27;20066;-58
2021/11/15 08:16:21;;;;;;;7.70;4.93;;;;;;;;;;4585111;27;20082;-58
2021/11/15 08:18:32;;;;;;;7.20;4.53;;;;;;;;;;4600036;27;20073;-57
2021/11/15 08:20:42;;;;;;;6.03;4.57;;;;;;;;;;4599576;27;20035;-57
2021/11/15 08:22:56;;;;;;;7.10;4.73;;;;;;;;;;4619247;27;20023;-57
2021/11/15 08:25:44;;;;;;;6.63;4.68;;;;;;;;;;4602455;27;20023;-58
2021/11/15 08:27:55;;;;;;;6.35;4.43;;;;;;;;;;4616349;27;20738;-57
2021/11/15 08:30:05;;;;;;;6.07;4.18;;;;;;;;;;4618397;27;20011;-57
2021/11/15 08:32:16;;;;;;;7.10;4.90;;;;;;;;;;4616924;27;20019;-57
2021/11/15 08:34:27;;;;;;;6.47;4.35;;;;;;;;;;4598409;27;20597;-57
2021/11/15 08:36:42;;;;;;;7.47;4.30;;;;;;;;;;4602902;27;20069;-58
2021/11/15 08:39:01;;;;;;;6.45;4.18;;;;;;;;;;4619431;27;20023;-57
2021/11/15 08:41:15;;;;;;;6.78;4.18;;;;;;;;;;4616633;27;20101;-58
2021/11/15 08:43:26;;;;;;;6.60;4.65;;;;;;;;;;4596436;27;20027;-58
2021/11/15 08:45:37;;;;;;;7.70;4.70;;;;;;;;;;4616125;27;20058;-58
2021/11/15 08:47:47;;;;;;;6.68;4.55;;;;;;;;;;4617137;27;20023;-58
2021/11/15 08:49:58;;;;;;;7.60;4.97;;;;;;;;;;4597980;27;20023;-58
2021/11/15 08:52:08;;;;;;;6.30;4.27;;;;;;;;;;4595641;27;20035;-58
2021/11/15 08:54:21;;;;;;;7.23;4.57;;;;;;;;;;4616808;27;20026;-58
2021/11/15 08:56:31;;;;;;;7.20;5.00;;;;;;;;;;4616234;27;20137;-58
2021/11/15 08:58:42;;;;;;;7.30;4.83;;;;;;;;;;4614408;27;20031;-58
2021/11/15 09:00:53;;;;;;;6.87;4.23;;;;;;;;;;4597764;27;20019;-58
2021/11/15 09:03:04;;;;;;;7.18;4.68;;;;;;;;;;4598366;27;20165;-58
2021/11/15 09:05:14;;;;;;;6.77;4.63;;;;;;;;;;4598904;27;20023;-58
2021/11/15 09:07:26;;;;;;;7.07;4.50;;;;;;;;;;4598801;27;20131;-59
2021/11/15 09:09:38;;;;;;;7.35;4.88;;;;;;;;;;4617113;27;20015;-58
2021/11/15 09:11:50;;;;;;;6.78;4.60;;;;;;;;;;4615918;27;20033;-56
2021/11/15 09:14:01;;;;;;;8.20;4.68;;;;;;;;;;4598494;27;20042;-57
2021/11/15 09:16:15;;;;;;;6.75;4.47;;;;;;;;;;4613722;27;20564;-56
2021/11/15 09:18:26;;;;;;;6.60;4.22;;;;;;;;;;4602752;27;20030;-56
2021/11/15 09:20:37;;;;;;;6.97;4.57;;;;;;;;;;4595377;27;20053;-56
2021/11/15 09:22:48;;;;;;;7.10;4.70;;;;;;;;;;4606062;27;20549;-56
2021/11/15 09:24:58;;;;;;;8.67;5.03;;;;;;;;;;4614701;27;20080;-56
2021/11/15 09:27:13;;;;;;;7.20;4.50;;;;;;;;;;4596012;27;20199;-56
2021/11/15 09:29:23;;;;;;;7.10;4.38;;;;;;;;;;4596090;27;20024;-57
2021/11/15 09:31:34;;;;;;;8.20;4.93;;;;;;;;;;4599782;27;20007;-57
2021/11/15 09:33:45;;;;;;;8.18;5.03;;;;;;;;;;4615113;27;20541;-57
2021/11/15 09:35:56;;;;;;;7.70;4.77;;;;;;;;;;4582011;27;20043;-58
2021/11/15 09:38:06;;;;;;;8.25;5.35;;;;;;;;;;4616341;27;20590;-57
2021/11/15 09:40:17;;;;;;;9.00;5.37;;;;;;;;;;4601393;27;20040;-57
2021/11/15 09:42:28;;;;;;;8.53;5.03;;;;;;;;;;4582442;27;20016;-57
2021/11/15 09:44:39;;;;;;;8.73;5.50;;;;;;;;;;4599162;27;20081;-57
2021/11/15 09:46:49;;;;;;;8.00;5.25;;;;;;;;;;4616736;27;20086;-57
2021/11/15 09:49:05;;;;;;;9.27;5.72;;;;;;;;;;4598554;27;20019;-57
2021/11/15 09:51:16;;;;;;;8.57;5.43;;;;;;;;;;4596128;27;20038;-57
2021/11/15 09:53:26;;;;;;;8.07;4.88;;;;;;;;;;4590254;27;20058;-57
2021/11/15 09:55:37;;;;;;;10.30;6.03;;;;;;;;;;4613249;27;20517;-57
2021/11/15 09:57:49;;;;;;;10.10;6.30;;;;;;;;;;4616393;27;20030;-57
2021/11/15 09:59:59;;;;;;;8.65;5.55;;;;;;;;;;4597181;27;20396;-57
2021/11/15 10:02:11;;;;;;;9.17;5.90;;;;;;;;;;4615952;27;20067;-58
2021/11/15 10:04:22;;;;;;;7.75;5.45;;;;;;;;;;4616306;27;20023;-57
2021/11/15 10:06:33;;;;;;;9.30;5.73;;;;;;;;;;4596244;27;20561;-58
2021/11/15 10:08:55;;;;;;;9.35;5.53;;;;;;;;;;4618135;27;20226;-57
2021/11/15 10:11:06;;;;;;;9.55;5.90;;;;;;;;;;4614555;27;20031;-57
2021/11/15 10:13:18;;;;;;;9.93;5.80;;;;;;;;;;4613664;27;20030;-57
2021/11/15 10:15:43;;;;;;;8.85;5.25;;;;;;;;;;4614624;27;20039;-57
2021/11/15 10:17:54;;;;;;;9.43;6.05;;;;;;;;;;4614352;27;20054;-57
2021/11/15 10:20:05;;;;;;;9.33;6.07;;;;;;;;;;4616778;27;20115;-58
2021/11/15 10:22:15;;;;;;;9.10;5.55;;;;;;;;;;4616466;27;20033;-57
2021/11/15 10:24:32;;;;;;;8.70;5.90;;;;;;;;;;4617149;27;20495;-57
2021/11/15 10:26:53;;;;;;;8.38;5.65;;;;;;;;;;4598174;27;20027;-58
2021/11/15 10:29:11;;;;;;;9.73;5.90;;;;;;;;;;4601696;27;20030;-57
2021/11/15 10:31:24;;;;;;;7.85;5.25;;;;;;;;;;4599126;27;20031;-57
2021/11/15 10:33:37;;;;;;;8.70;5.78;;;;;;;;;;4617252;27;20027;-57
2021/11/15 10:35:48;;;;;;;8.85;5.72;;;;;;;;;;4619245;27;20053;-57
2021/11/15 10:37:58;;;;;;;8.73;5.80;;;;;;;;;;4617996;27;20076;-57
2021/11/15 10:40:12;;;;;;;8.30;5.90;;;;;;;;;;4617170;27;20023;-58
2021/11/15 10:42:46;;;;;;;8.73;6.00;;;;;;;;;;4599586;27;20040;-58
2021/11/15 10:45:12;;;;;;;8.63;5.45;;;;;;;;;;4617295;27;20027;-58
2021/11/15 10:47:30;;;;;;;8.80;5.60;;;;;;;;;;4602567;27;20023;-57
2021/11/15 10:49:41;;;;;;;9.15;5.57;;;;;;;;;;4617070;27;20023;-58
2021/11/15 10:51:58;;;;;;;9.18;5.65;;;;;;;;;;4600168;27;20973;-58
2021/11/15 10:57:27;;;;;;;8.32;5.50;;;;;;;;;;4603245;27;20594;-58
2021/11/15 10:59:38;;;;;;;8.52;5.78;;;;;;;;;;4618400;27;20153;-58
2021/11/15 11:01:49;;;;;;;8.73;5.50;;;;;;;;;;4618609;27;20099;-58
2021/11/15 11:04:10;;;;;;;7.90;5.83;;;;;;;;;;4603400;27;20027;-58
2021/11/15 11:06:21;;;;;;;7.85;5.32;;;;;;;;;;4618643;27;20664;-59
2021/11/15 11:08:41;;;;;;;9.50;5.50;;;;;;;;;;4617688;27;20509;-58
2021/11/15 11:11:08;;;;;;;7.80;5.43;;;;;;;;;;4617364;27;20022;-59
2021/11/15 11:13:22;;;;;;;8.00;5.22;;;;;;;;;;4601248;27;20027;-58
2021/11/15 11:15:43;;;;;;;8.00;5.30;;;;;;;;;;4604028;27;20047;-58
2021/11/15 11:17:58;;;;;;;7.65;5.00;;;;;;;;;;4598028;27;20649;-58
2021/11/15 11:20:28;;;;;;;7.55;4.90;;;;;;;;;;4596988;27;20031;-58
2021/11/15 11:27:14;;;;;;;6.82;4.68;;;;;;;;;;4590749;27;20551;-58
2021/11/15 11:29:29;;;;;;;7.43;5.28;;;;;;;;;;4608105;27;20065;-58
2021/11/15 11:31:42;;;;;;;7.25;4.90;;;;;;;;;;4595735;27;20028;-58
2021/11/15 11:33:53;;;;;;;7.10;5.03;;;;;;;;;;4617503;27;20081;-58
2021/11/15 11:36:06;;;;;;;8.55;5.75;;;;;;;;;;4617646;27;20035;-58
2021/11/15 11:38:18;;;;;;;7.93;5.45;;;;;;;;;;4585673;27;20138;-58
2021/11/15 11:40:29;;;;;;;7.18;4.90;;;;;;;;;;4600516;27;20636;-59
2021/11/15 11:42:39;;;;;;;8.00;5.27;;;;;;;;;;4616497;27;20028;-58
2021/11/15 11:44:52;;;;;;;8.57;5.40;;;;;;;;;;4617274;27;20519;-58
2021/11/15 11:47:08;;;;;;;8.25;5.25;;;;;;;;;;4616134;27;20091;-58
2021/11/15 11:49:20;;;;;;;8.20;5.07;;;;;;;;;;4616487;27;20023;-58
2021/11/15 11:51:31;;;;;;;7.45;5.10;;;;;;;;;;4615144;27;20032;-58
2021/11/15 11:53:41;;;;;;;7.67;4.93;;;;;;;;;;4598366;27;20024;-58
2021/11/15 11:55:52;;;;;;;7.10;4.83;;;;;;;;;;4615730;27;20069;-58
2021/11/15 11:58:24;;;;;;;7.90;5.13;;;;;;;;;;4616796;27;20102;-58
2021/11/15 12:00:38;;;;;;;7.78;5.05;;;;;;;;;;4617536;27;20031;-58
2021/11/15 12:02:49;;;;;;;8.35;5.57;;;;;;;;;;4617514;27;20022;-58
2021/11/15 12:05:03;;;;;;;7.57;5.00;;;;;;;;;;4616598;27;20035;-58
2021/11/15 12:07:36;;;;;;;7.28;5.25;;;;;;;;;;4615229;27;20035;-58
2021/11/15 12:09:47;;;;;;;8.02;5.18;;;;;;;;;;4600941;27;20066;-58
2021/11/15 12:12:02;;;;;;;9.07;5.77;;;;;;;;;;4599351;27;20147;-58
2021/11/15 12:14:14;;;;;;;8.00;5.20;;;;;;;;;;4598446;27;20050;-58
2021/11/15 12:16:53;;;;;;;7.30;5.15;;;;;;;;;;4583674;27;20487;-59
2021/11/15 12:19:04;;;;;;;8.10;5.47;;;;;;;;;;4614618;27;20030;-58
2021/11/15 12:21:20;;;;;;;9.17;6.20;;;;;;;;;;4584729;27;20035;-58
2021/11/15 12:23:56;;;;;;;10.60;6.97;;;;;;;;;;4597238;27;20027;-58
2021/11/15 12:26:13;;;;;;;9.25;6.30;;;;;;;;;;4616290;27;20664;-58
2021/11/15 12:28:28;;;;;;;8.13;5.38;;;;;;;;;;4617776;27;20069;-58
2021/11/15 12:30:48;;;;;;;8.50;5.80;;;;;;;;;;4598863;27;20020;-58
2021/11/15 12:33:17;;;;;;;9.35;5.85;;;;;;;;;;4616099;27;20053;-58
2021/11/15 12:35:59;;;;;;;8.38;5.47;;;;;;;;;;4600481;27;20574;-58
2021/11/15 12:38:39;;;;;;;7.60;5.13;;;;;;;;;;4616344;27;20019;-58
2021/11/15 12:40:50;;;;;;;8.65;5.75;;;;;;;;;;4606872;27;20585;-59
2021/11/15 12:43:15;;;;;;;9.27;5.60;;;;;;;;;;4617182;27;20154;-57
2021/11/15 12:45:26;;;;;;;7.55;5.43;;;;;;;;;;4609067;27;20036;-56
2021/11/15 12:47:39;;;;;;;8.90;5.27;;;;;;;;;;4618357;27;20030;-56
2021/11/15 12:49:49;;;;;;;8.30;5.82;;;;;;;;;;4617573;27;20031;-57
2021/11/15 12:52:10;;;;;;;7.47;5.57;;;;;;;;;;4615069;27;20534;-57
2021/11/15 12:54:20;;;;;;;8.55;5.32;;;;;;;;;;4609136;27;20023;-57
2021/11/15 12:56:38;;;;;;;8.50;5.77;;;;;;;;;;4617751;27;20039;-57
2021/11/15 12:58:49;;;;;;;9.13;5.93;;;;;;;;;;4597805;27;20041;-57
2021/11/15 13:01:00;;;;;;;8.32;5.65;;;;;;;;;;4601826;27;20657;-57
2021/11/15 13:03:11;;;;;;;7.80;6.07;;;;;;;;;;4608038;27;20035;-57
2021/11/15 13:05:23;;;;;;;9.07;5.60;;;;;;;;;;4586381;27;20132;-59
2021/11/15 13:07:34;;;;;;;8.48;6.00;;;;;;;;;;4601311;27;20030;-58
2021/11/15 13:09:49;;;;;;;8.50;6.10;;;;;;;;;;4609190;27;20050;-58
2021/11/15 13:12:00;;;;;;;8.68;5.85;;;;;;;;;;4616966;27;20356;-58
2021/11/15 13:14:12;;;;;;;9.77;6.47;;;;;;;;;;4617096;27;22716;-58
2021/11/15 13:16:24;;;;;;;9.48;6.88;;;;;;;;;;4617098;27;20047;-58
2021/11/15 13:18:35;;;;;;;8.85;6.20;;;;;;;;;;4617267;27;20447;-58
2021/11/15 13:20:46;;;;;;;9.45;6.45;;;;;;;;;;4601658;27;20050;-58